Park Fletcher, Indiana
Current Conditions -  °F | °C
As of 2:54 AM on Friday 31 Oct 2014 (Local Time) from KIND Reporting Station
Broken Clouds Broken Clouds  
Wind Chill: 43°   Ceiling: 14000
Heat Index: 45°   Visibility: 10mi
Dew Point: 38°   Wind: 5mph
Humidity: 76%   Direction: 280°W
Pressure: 30.01"   Gusts: NA
Location:  39.7251°N, 86.264°W
Report Text: KIND 310654Z 28004KT 10SM BKN140 07/03 A3001 RMK AO2 SLP163 T00720033
Loading
Personal Weather Stations






























Interactive Weather Map
Tropical Storm Tracking
New forecast layout! Learn more

10-Day Weather Forecast

Advertisements
Track Severe Weather on mobile